Time;durP1;ratioP1;P1;durP2;ratioP2;P2;SDS_P1;SDS_P2;PMS_P1;PMS_P2;Temp;Humidity;BMP_temperature;BMP_pressure;BME280_temperature;BME280_humidity;BME280_pressure;Samples;Min_cycle;Max_cycle;Signal;HPM_P1;HPM_P2
2022/08/21 00:01:08;;;;;;;5.20;2.90;;;15.20;99.90;;;;;;5001396;28;20247;-81
2022/08/21 00:03:34;;;;;;;10.27;2.90;;;15.30;99.90;;;;;;5006877;28;20235;-81
2022/08/21 00:06:00;;;;;;;6.23;2.53;;;15.30;99.90;;;;;;4994318;28;20274;-82
2022/08/21 00:08:25;;;;;;;5.73;2.50;;;15.30;99.90;;;;;;4987316;28;20202;-80
2022/08/21 00:10:51;;;;;;;4.23;2.63;;;15.30;99.90;;;;;;5000903;28;20564;-82
2022/08/21 00:13:19;;;;;;;7.70;2.60;;;15.20;99.90;;;;;;4980723;28;20224;-81
2022/08/21 00:15:46;;;;;;;6.27;2.60;;;15.20;99.90;;;;;;4995210;28;20220;-81
2022/08/21 00:18:12;;;;;;;4.07;2.53;;;15.20;99.90;;;;;;4999993;28;20184;-81
2022/08/21 00:20:39;;;;;;;11.27;3.30;;;15.20;99.90;;;;;;4996687;28;20184;-82
2022/08/21 00:23:06;;;;;;;5.23;2.30;;;15.20;99.90;;;;;;4998560;28;20620;-81
2022/08/21 00:25:32;;;;;;;6.30;3.17;;;15.20;99.90;;;;;;4999942;28;20352;-82
2022/08/21 00:27:58;;;;;;;4.97;2.83;;;15.20;99.90;;;;;;4998202;28;20227;-81
2022/08/21 00:30:26;;;;;;;7.77;2.70;;;15.20;99.90;;;;;;4976318;28;20220;-81
2022/08/21 00:32:53;;;;;;;6.07;2.87;;;15.20;99.90;;;;;;4981108;28;20682;-82
2022/08/21 00:35:29;;;;;;;4.73;2.70;;;15.20;99.90;;;;;;5000485;28;20219;-81
2022/08/21 00:37:56;;;;;;;5.10;2.67;;;15.20;99.90;;;;;;5014135;28;20219;-82
2022/08/21 00:40:32;;;;;;;6.80;4.20;;;15.20;99.90;;;;;;5018686;28;20268;-82
2022/08/21 00:42:58;;;;;;;5.10;3.63;;;15.10;99.90;;;;;;5017870;28;20237;-82
2022/08/21 00:45:25;;;;;;;3.70;2.47;;;15.00;99.90;;;;;;5010563;28;20219;-82
2022/08/21 00:47:51;;;;;;;8.97;3.10;;;15.10;99.90;;;;;;5019731;28;20196;-82
2022/08/21 00:50:19;;;;;;;13.00;3.43;;;15.00;99.90;;;;;;5017191;28;20280;-81
2022/08/21 00:52:45;;;;;;;5.97;3.00;;;15.10;99.90;;;;;;5017345;28;20235;-80
2022/08/21 00:55:13;;;;;;;6.93;3.00;;;15.10;99.90;;;;;;5001638;28;20227;-81
2022/08/21 00:57:47;;;;;;;4.63;3.10;;;15.20;99.90;;;;;;5021624;28;20229;-81
2022/08/21 01:00:16;;;;;;;4.90;2.70;;;15.20;99.90;;;;;;5018516;28;20176;-80
2022/08/21 01:02:43;;;;;;;4.03;2.73;;;15.20;99.90;;;;;;5055109;28;20245;-81
2022/08/21 01:05:09;;;;;;;6.10;3.40;;;15.30;99.90;;;;;;5081075;28;20674;-81
2022/08/21 01:07:35;;;;;;;7.10;2.93;;;15.30;99.90;;;;;;5100175;28;20261;-82
2022/08/21 01:10:02;;;;;;;7.23;2.93;;;15.30;99.90;;;;;;5081980;28;20224;-82
2022/08/21 01:12:28;;;;;;;9.40;3.40;;;15.30;99.90;;;;;;5102465;28;20231;-82
2022/08/21 01:14:53;;;;;;;5.20;2.93;;;15.30;99.90;;;;;;5105657;28;20301;-82
2022/08/21 01:17:21;;;;;;;5.40;3.53;;;15.30;99.90;;;;;;5088679;28;20581;-82
2022/08/21 01:19:47;;;;;;;7.93;2.80;;;15.20;99.90;;;;;;5101056;28;20223;-81
2022/08/21 01:22:12;;;;;;;5.27;2.77;;;15.10;99.90;;;;;;5068949;28;20223;-82
2022/08/21 01:24:38;;;;;;;3.77;2.53;;;15.00;99.90;;;;;;5085575;28;20219;-82
2022/08/21 01:27:05;;;;;;;5.40;3.00;;;15.00;99.90;;;;;;5051669;28;20184;-82
2022/08/21 01:29:51;;;;;;;5.40;2.83;;;14.90;99.90;;;;;;5101855;28;20184;-81
2022/08/21 01:32:19;;;;;;;5.00;2.50;;;15.00;99.90;;;;;;5102454;28;20230;-81
2022/08/21 01:34:47;;;;;;;4.30;3.03;;;15.00;99.90;;;;;;5099835;28;20212;-81
2022/08/21 01:37:13;;;;;;;5.17;3.00;;;15.00;99.90;;;;;;5102862;28;20215;-81
2022/08/21 01:39:40;;;;;;;3.30;2.33;;;15.00;99.90;;;;;;5099559;28;20212;-81
2022/08/21 01:42:06;;;;;;;7.40;3.17;;;15.00;99.90;;;;;;5102865;28;20181;-84
2022/08/21 01:44:32;;;;;;;6.37;3.27;;;15.00;99.90;;;;;;5103965;28;20188;-81
2022/08/21 01:47:01;;;;;;;5.93;3.37;;;14.90;99.90;;;;;;5072474;28;20591;-81
2022/08/21 01:49:27;;;;;;;5.17;3.27;;;14.90;99.90;;;;;;5082031;28;20303;-81
2022/08/21 01:51:53;;;;;;;6.00;2.90;;;14.90;99.90;;;;;;5099077;28;20232;-81
2022/08/21 01:54:19;;;;;;;8.33;3.40;;;14.90;99.90;;;;;;5079897;28;20298;-81
2022/08/21 01:56:48;;;;;;;10.13;3.20;;;14.90;99.90;;;;;;5103014;28;20267;-82
2022/08/21 01:59:14;;;;;;;4.53;3.10;;;14.90;99.90;;;;;;5081573;28;20208;-81
2022/08/21 02:01:40;;;;;;;4.90;3.23;;;14.80;99.90;;;;;;5102330;28;20685;-81
2022/08/21 02:04:08;;;;;;;6.03;3.07;;;14.80;99.90;;;;;;5099525;28;20222;-81
2022/08/21 02:06:34;;;;;;;7.83;3.10;;;14.80;99.90;;;;;;5085069;28;20216;-81
2022/08/21 02:09:04;;;;;;;3.33;2.53;;;14.80;99.90;;;;;;5084363;28;20241;-82
2022/08/21 02:11:30;;;;;;;5.23;3.17;;;14.70;99.90;;;;;;5081452;28;20253;-81
2022/08/21 02:13:56;;;;;;;8.63;4.33;;;14.70;99.90;;;;;;5083515;28;20220;-81
2022/08/21 02:16:22;;;;;;;9.50;4.10;;;14.70;99.90;;;;;;5084729;28;20303;-81
2022/08/21 02:18:48;;;;;;;4.30;2.70;;;14.70;99.90;;;;;;5102539;28;20239;-82
2022/08/21 02:21:13;;;;;;;8.43;4.27;;;14.70;99.90;;;;;;5103015;28;20290;-80
2022/08/21 02:23:39;;;;;;;9.03;3.27;;;14.60;99.90;;;;;;5065424;28;20188;-81
2022/08/21 02:26:07;;;;;;;5.87;4.23;;;14.50;99.90;;;;;;5081050;28;20310;-80
2022/08/21 02:28:34;;;;;;;5.97;4.17;;;14.50;99.90;;;;;;5085380;28;20248;-81
2022/08/21 02:31:01;;;;;;;9.67;3.90;;;14.50;99.90;;;;;;5101062;28;20216;-81
2022/08/21 02:33:27;;;;;;;10.43;3.67;;;14.50;99.90;;;;;;5098621;28;20213;-81
2022/08/21 02:35:53;;;;;;;7.13;4.30;;;14.50;99.90;;;;;;5100823;28;20196;-80
2022/08/21 02:38:34;;;;;;;7.43;4.20;;;14.50;99.90;;;;;;5067664;28;20212;-81
2022/08/21 02:41:00;;;;;;;4.67;4.03;;;14.60;99.90;;;;;;5102514;28;20235;-81
2022/08/21 02:43:27;;;;;;;6.03;3.07;;;14.60;99.90;;;;;;5087371;28;20215;-82
2022/08/21 02:45:55;;;;;;;4.47;3.80;;;14.60;99.90;;;;;;5102077;28;20590;-82
2022/08/21 02:48:25;;;;;;;10.03;3.53;;;14.60;99.90;;;;;;5084745;28;20216;-82
2022/08/21 02:50:55;;;;;;;8.83;3.70;;;14.60;99.90;;;;;;5100651;28;20242;-82
2022/08/21 02:53:21;;;;;;;5.40;3.03;;;14.60;99.90;;;;;;5102692;28;20703;-82
2022/08/21 02:55:49;;;;;;;6.77;3.13;;;14.60;99.90;;;;;;5101503;28;20216;-82
2022/08/21 02:58:17;;;;;;;4.83;3.47;;;14.60;99.90;;;;;;5090977;28;20224;-82
2022/08/21 03:00:43;;;;;;;6.63;3.20;;;14.60;99.90;;;;;;5084954;28;20205;-82
2022/08/21 03:03:09;;;;;;;9.50;4.07;;;14.60;99.90;;;;;;5101859;28;20247;-82
2022/08/21 03:05:37;;;;;;;5.70;3.43;;;14.60;99.90;;;;;;5088263;28;20534;-82
2022/08/21 03:08:06;;;;;;;5.23;3.07;;;14.60;99.90;;;;;;5106031;28;20248;-82
2022/08/21 03:10:33;;;;;;;5.23;3.17;;;14.60;99.90;;;;;;5098715;28;20659;-82
2022/08/21 03:12:59;;;;;;;6.50;4.47;;;14.60;99.90;;;;;;5084641;28;20342;-83
2022/08/21 03:15:25;;;;;;;6.67;4.03;;;14.60;99.90;;;;;;5105718;28;20722;-81
2022/08/21 03:17:51;;;;;;;7.97;3.53;;;14.50;99.90;;;;;;5084756;28;20187;-81
2022/08/21 03:20:19;;;;;;;6.10;3.37;;;14.50;99.90;;;;;;5105693;28;20246;-82
2022/08/21 03:22:46;;;;;;;5.30;3.43;;;14.50;99.90;;;;;;5105565;28;20303;-82
2022/08/21 03:25:11;;;;;;;6.93;3.53;;;14.50;99.90;;;;;;5091492;28;20215;-82
2022/08/21 03:27:37;;;;;;;5.93;3.20;;;14.50;99.90;;;;;;5102171;28;20258;-82
2022/08/21 03:30:06;;;;;;;7.30;3.57;;;14.50;99.90;;;;;;5101452;28;20211;-80
2022/08/21 03:32:31;;;;;;;7.00;3.40;;;14.50;99.90;;;;;;5102161;28;20654;-81
2022/08/21 03:34:58;;;;;;;9.93;3.60;;;14.50;99.90;;;;;;5086945;28;20247;-81
2022/08/21 03:37:27;;;;;;;6.97;4.27;;;14.50;99.90;;;;;;5083749;28;20567;-81
2022/08/21 03:39:53;;;;;;;7.27;3.27;;;14.60;99.90;;;;;;5083044;28;20234;-82
2022/08/21 03:42:19;;;;;;;8.33;3.70;;;14.50;99.90;;;;;;5087559;28;20732;-82
2022/08/21 03:44:45;;;;;;;6.30;3.53;;;14.50;99.90;;;;;;5105902;28;20177;-82
2022/08/21 03:47:11;;;;;;;5.63;3.83;;;14.50;99.90;;;;;;5090442;28;20223;-83
2022/08/21 03:49:37;;;;;;;4.20;3.13;;;14.50;99.90;;;;;;5100871;28;20658;-83
2022/08/21 03:52:03;;;;;;;6.50;3.57;;;14.60;99.90;;;;;;5096803;28;20236;-84
2022/08/21 03:54:29;;;;;;;9.37;4.07;;;14.60;99.90;;;;;;5104444;28;20219;-82
2022/08/21 03:56:55;;;;;;;9.83;4.33;;;14.60;99.90;;;;;;5100730;28;20595;-82
2022/08/21 03:59:20;;;;;;;9.60;4.13;;;14.60;99.90;;;;;;5105378;28;20334;-83
2022/08/21 04:01:59;;;;;;;6.10;3.30;;;14.60;99.90;;;;;;5067417;28;20306;-82
2022/08/21 04:04:25;;;;;;;17.47;4.80;;;14.60;99.90;;;;;;5104795;28;20678;-83
2022/08/21 04:06:51;;;;;;;9.23;3.67;;;14.70;99.90;;;;;;5102844;28;20687;-81
2022/08/21 04:09:18;;;;;;;5.33;3.40;;;14.70;99.90;;;;;;5086797;28;20235;-83
2022/08/21 04:11:45;;;;;;;6.37;3.50;;;14.70;99.90;;;;;;5070668;28;20208;-83
2022/08/21 04:14:11;;;;;;;9.33;4.77;;;14.60;99.90;;;;;;5104377;28;20747;-83
2022/08/21 04:16:37;;;;;;;7.13;4.13;;;14.60;99.90;;;;;;5094794;28;20230;-83
2022/08/21 04:19:03;;;;;;;6.60;3.90;;;14.70;99.90;;;;;;5052930;28;20222;-80
2022/08/21 04:21:30;;;;;;;10.53;4.20;;;14.70;99.90;;;;;;5087247;28;20220;-82
2022/08/21 04:23:56;;;;;;;7.37;4.23;;;14.80;99.90;;;;;;5107403;28;20188;-82
2022/08/21 04:26:22;;;;;;;7.67;3.47;;;14.90;99.90;;;;;;5084574;28;20192;-82
2022/08/21 04:28:48;;;;;;;9.87;3.47;;;14.90;99.90;;;;;;5068095;28;20239;-84
2022/08/21 04:31:13;;;;;;;8.30;3.30;;;14.90;99.90;;;;;;5083978;28;20377;-83
2022/08/21 04:33:39;;;;;;;7.63;3.33;;;14.90;99.90;;;;;;5101740;28;20220;-83
2022/08/21 04:36:06;;;;;;;6.20;3.97;;;15.00;99.90;;;;;;5073430;28;20193;-83
2022/08/21 04:38:32;;;;;;;11.07;4.87;;;15.00;99.90;;;;;;5102955;28;20249;-83
2022/08/21 04:40:58;;;;;;;7.13;3.40;;;15.00;99.90;;;;;;5100081;28;20733;-83
2022/08/21 04:43:25;;;;;;;6.67;3.97;;;15.00;99.90;;;;;;5076661;28;20223;-83
2022/08/21 04:45:52;;;;;;;10.87;4.83;;;15.10;99.90;;;;;;5084253;28;20291;-83
2022/08/21 04:48:20;;;;;;;5.93;3.23;;;15.00;99.90;;;;;;5090505;28;20220;-83
2022/08/21 04:51:01;;;;;;;11.50;4.23;;;15.00;99.90;;;;;;5082875;28;20176;-82
2022/08/21 04:53:37;;;;;;;5.67;3.53;;;15.10;99.90;;;;;;5096288;28;20224;-83
2022/08/21 04:56:19;;;;;;;7.60;3.83;;;15.10;99.90;;;;;;5090369;28;20712;-82
2022/08/21 04:58:44;;;;;;;8.07;3.80;;;15.30;99.90;;;;;;5093048;28;20232;-84
2022/08/21 05:01:14;;;;;;;7.50;3.43;;;15.30;99.90;;;;;;5066228;28;20225;-82
2022/08/21 05:03:40;;;;;;;8.40;4.17;;;15.40;99.90;;;;;;5021948;28;20750;-83
2022/08/21 05:06:10;;;;;;;8.63;4.03;;;15.50;99.90;;;;;;5015712;28;20667;-83
2022/08/21 05:08:37;;;;;;;5.93;2.90;;;15.50;99.90;;;;;;5027306;28;20661;-82
2022/08/21 05:11:04;;;;;;;8.60;3.70;;;15.50;99.90;;;;;;5019254;28;20222;-83
2022/08/21 05:13:30;;;;;;;5.37;3.57;;;15.60;99.90;;;;;;5000848;28;20225;-83
2022/08/21 05:15:56;;;;;;;9.63;3.57;;;15.60;99.90;;;;;;5015318;28;20223;-83
2022/08/21 05:18:22;;;;;;;4.83;3.40;;;15.70;99.90;;;;;;5016710;28;20225;-83
2022/08/21 05:20:48;;;;;;;5.90;3.57;;;15.80;99.90;;;;;;5018026;28;20209;-82
2022/08/21 05:23:15;;;;;;;5.97;3.63;;;16.00;99.90;;;;;;5014955;28;20670;-82
2022/08/21 05:25:41;;;;;;;8.13;3.83;;;16.20;99.90;;;;;;5018538;28;20703;-83
2022/08/21 05:28:07;;;;;;;9.17;3.97;;;16.50;99.90;;;;;;5017171;28;20211;-83
2022/08/21 05:30:34;;;;;;;6.70;4.00;;;16.70;99.90;;;;;;5013682;28;20222;-83
2022/08/21 05:33:01;;;;;;;9.50;4.03;;;16.90;99.90;;;;;;5016332;28;20271;-83
2022/08/21 05:35:28;;;;;;;7.47;3.80;;;17.10;99.90;;;;;;5014694;28;20191;-81
2022/08/21 05:37:55;;;;;;;8.70;4.10;;;17.40;99.90;;;;;;5018066;28;20298;-81
2022/08/21 05:40:21;;;;;;;10.87;3.43;;;17.70;99.90;;;;;;5018926;28;20298;-81
2022/08/21 05:42:47;;;;;;;8.20;4.17;;;18.00;99.90;;;;;;5019120;28;20757;-82
2022/08/21 05:45:12;;;;;;;11.27;3.77;;;18.20;99.90;;;;;;5015983;28;20301;-82
2022/08/21 05:47:39;;;;;;;10.40;3.17;;;18.20;99.90;;;;;;5020090;28;20663;-80
2022/08/21 05:50:05;;;;;;;10.20;4.77;;;18.30;99.90;;;;;;5016923;28;20231;-80
2022/08/21 05:52:31;;;;;;;5.30;3.53;;;19.30;99.90;;;;;;5019722;28;20231;-81
2022/08/21 05:54:57;;;;;;;13.30;3.93;;;20.60;99.90;;;;;;5018896;28;20230;-81
2022/08/21 05:57:23;;;;;;;5.93;2.93;;;22.10;99.90;;;;;;5033269;28;20226;-80
2022/08/21 05:59:49;;;;;;;10.13;2.87;;;23.50;99.90;;;;;;5011706;28;20191;-82
2022/08/21 06:02:20;;;;;;;7.33;2.60;;;24.90;99.90;;;;;;5041921;28;20699;-81
2022/08/21 06:04:47;;;;;;;4.27;2.20;;;25.60;99.90;;;;;;5081551;28;20269;-82
2022/08/21 06:07:13;;;;;;;7.90;2.63;;;26.40;99.90;;;;;;5068241;28;20721;-83
2022/08/21 06:09:39;;;;;;;7.87;2.63;;;26.70;99.90;;;;;;5068222;28;20290;-82
2022/08/21 06:12:08;;;;;;;7.77;2.70;;;27.60;99.90;;;;;;5098835;28;20561;-82
2022/08/21 06:14:34;;;;;;;6.43;2.50;;;28.50;99.90;;;;;;5107593;28;20184;-82
2022/08/21 06:17:07;;;;;;;4.33;2.60;;;29.30;99.90;;;;;;5102903;28;20714;-83
2022/08/21 06:19:33;;;;;;;5.05;2.30;;;30.00;99.90;;;;;;5090646;28;20247;-83
2022/08/21 06:21:59;;;;;;;5.63;2.38;;;30.20;99.90;;;;;;5088187;28;20698;-82
2022/08/21 06:24:25;;;;;;;5.95;2.67;;;30.30;99.90;;;;;;5088186;28;20270;-82
2022/08/21 06:26:51;;;;;;;5.07;2.22;;;31.10;99.90;;;;;;5112048;28;20715;-82
2022/08/21 06:29:17;;;;;;;5.50;2.13;;;30.70;99.90;;;;;;5114909;28;20212;-83
2022/08/21 06:31:44;;;;;;;5.00;2.47;;;30.40;99.90;;;;;;5106679;28;20297;-79
2022/08/21 06:34:10;;;;;;;4.20;1.80;;;29.80;99.90;;;;;;5105529;28;20813;-85
2022/08/21 06:36:36;;;;;;;3.75;2.35;;;29.90;99.90;;;;;;5088536;28;20291;-81
2022/08/21 06:39:03;;;;;;;5.07;2.58;;;30.30;99.90;;;;;;5092889;28;20271;-81
2022/08/21 06:41:29;;;;;;;3.65;2.28;;;30.40;99.90;;;;;;5079865;28;20188;-81
2022/08/21 06:43:56;;;;;;;5.60;2.00;;;28.60;99.90;;;;;;5090641;28;20291;-84
2022/08/21 06:46:24;;;;;;;6.55;2.15;;;28.30;99.90;;;;;;5085307;28;20234;-80
2022/08/21 06:48:49;;;;;;;3.10;1.67;;;28.10;99.90;;;;;;5105512;28;20221;-81
2022/08/21 06:51:15;;;;;;;9.23;2.28;;;28.50;99.90;;;;;;5067912;28;20232;-82
2022/08/21 06:53:41;;;;;;;4.50;2.08;;;28.80;99.90;;;;;;5109401;28;20242;-82
2022/08/21 06:56:07;;;;;;;1.70;1.60;;;28.30;99.90;;;;;;5106110;28;20586;-83
2022/08/21 06:58:33;;;;;;;6.78;2.13;;;28.70;99.90;;;;;;5090089;28;20227;-81
2022/08/21 07:00:59;;;;;;;5.88;1.85;;;29.30;99.90;;;;;;5084726;28;20224;-82
2022/08/21 07:03:34;;;;;;;6.55;1.92;;;29.30;99.90;;;;;;5040972;28;20642;-81
2022/08/21 07:06:00;;;;;;;13.10;2.38;;;30.10;99.90;;;;;;5018281;28;20229;-82
2022/08/21 07:08:27;;;;;;;5.38;1.52;;;30.20;99.90;;;;;;5017120;28;20214;-83
2022/08/21 07:10:55;;;;;;;5.03;1.85;;;29.30;99.90;;;;;;5022087;28;20741;-82
2022/08/21 07:13:20;;;;;;;4.82;2.13;;;29.00;99.90;;;;;;5004042;28;20247;-81
2022/08/21 07:15:46;;;;;;;5.45;1.55;;;28.80;99.90;;;;;;5026426;28;20224;-82
2022/08/21 07:18:13;;;;;;;4.53;1.80;;;28.40;99.90;;;;;;5003479;28;20194;-81
2022/08/21 07:20:40;;;;;;;4.80;1.40;;;27.60;99.90;;;;;;5019162;28;20680;-82
2022/08/21 07:23:11;;;;;;;3.17;1.50;;;28.20;99.90;;;;;;5019055;28;20216;-81
2022/08/21 07:25:37;;;;;;;8.13;1.63;;;30.00;99.90;;;;;;5019053;28;20223;-82
2022/08/21 07:28:03;;;;;;;2.42;1.50;;;30.60;99.90;;;;;;5021086;28;20676;-81
2022/08/21 07:30:30;;;;;;;6.68;2.10;;;31.60;99.90;;;;;;5019000;28;20230;-81
2022/08/21 07:32:56;;;;;;;4.97;1.67;;;30.40;99.90;;;;;;5018437;28;20222;-81
2022/08/21 07:35:23;;;;;;;5.50;1.45;;;31.40;99.90;;;;;;5004552;28;20637;-82
2022/08/21 07:37:49;;;;;;;6.30;2.53;;;30.00;99.90;;;;;;5019600;28;20697;-81
2022/08/21 07:40:16;;;;;;;3.15;1.75;;;29.80;99.90;;;;;;5032540;28;20226;-82
2022/08/21 07:42:46;;;;;;;6.22;1.67;;;30.30;99.90;;;;;;5046932;27;20248;-81
2022/08/21 07:45:13;;;;;;;5.93;1.80;;;29.20;99.90;;;;;;5030745;28;20175;-82
2022/08/21 07:47:39;;;;;;;5.80;1.67;;;27.30;99.90;;;;;;5022001;28;20673;-81
2022/08/21 07:50:06;;;;;;;4.43;1.85;;;27.00;99.90;;;;;;5095067;28;20417;-82
2022/08/21 07:52:33;;;;;;;3.90;2.33;;;26.10;99.90;;;;;;5027688;28;20339;-81
2022/08/21 07:54:59;;;;;;;5.70;1.85;;;25.90;99.90;;;;;;5113550;27;20214;-81
2022/08/21 07:57:25;;;;;;;9.13;1.70;;;25.60;99.90;;;;;;5026972;28;20218;-82
2022/08/21 07:59:50;;;;;;;9.10;1.40;;;25.20;99.90;;;;;;5030338;28;20194;-81
2022/08/21 08:02:28;;;;;;;7.07;2.03;;;25.10;99.90;;;;;;5046009;28;20717;-82
2022/08/21 08:04:54;;;;;;;5.63;1.85;;;25.10;99.90;;;;;;5106350;28;20219;-82
2022/08/21 08:07:19;;;;;;;5.78;1.95;;;24.80;99.90;;;;;;5087550;28;20714;-82
2022/08/21 08:09:45;;;;;;;4.35;1.73;;;24.10;99.90;;;;;;5070195;28;20215;-81
2022/08/21 08:12:11;;;;;;;5.60;1.85;;;24.10;99.90;;;;;;5086042;28;20572;-82
2022/08/21 08:14:37;;;;;;;5.43;1.77;;;24.30;99.90;;;;;;5089413;28;20276;-82
2022/08/21 08:17:03;;;;;;;5.93;2.38;;;24.40;99.90;;;;;;5083933;28;20326;-84
2022/08/21 08:19:30;;;;;;;6.53;2.28;;;26.00;99.90;;;;;;5084927;28;20217;-85
2022/08/21 08:21:56;;;;;;;5.07;2.00;;;27.90;99.90;;;;;;5072069;28;20697;-85
2022/08/21 08:24:21;;;;;;;4.53;1.67;;;29.60;99.90;;;;;;5105516;28;20295;-87
2022/08/21 08:26:47;;;;;;;5.80;1.98;;;29.40;99.90;;;;;;5088822;28;20187;-85
2022/08/21 08:29:13;;;;;;;5.45;2.22;;;29.50;99.90;;;;;;5099257;28;20224;-81
2022/08/21 08:31:39;;;;;;;10.73;2.20;;;30.80;99.90;;;;;;5105844;28;20216;-81
2022/08/21 08:34:05;;;;;;;4.93;1.90;;;31.60;99.90;;;;;;5071469;28;20227;-81
2022/08/21 08:36:36;;;;;;;4.30;1.55;;;32.00;99.90;;;;;;5094009;28;20206;-82
2022/08/21 08:39:04;;;;;;;1.95;1.38;;;31.90;99.90;;;;;;5107039;28;20642;-84
2022/08/21 08:41:30;;;;;;;6.72;1.88;;;31.20;99.90;;;;;;5101138;28;20524;-81
2022/08/21 08:44:02;;;;;;;3.83;1.52;;;32.30;99.90;;;;;;5087054;28;20627;-82
2022/08/21 08:46:37;;;;;;;7.50;2.30;;;31.40;99.90;;;;;;5088210;28;20215;-81
2022/08/21 08:49:31;;;;;;;4.75;1.48;;;30.20;99.90;;;;;;5085886;28;20211;-82
2022/08/21 08:52:07;;;;;;;5.53;1.77;;;29.30;99.90;;;;;;5101962;28;20706;-81
2022/08/21 08:54:55;;;;;;;4.78;1.52;;;29.00;99.90;;;;;;5104108;28;20235;-80
2022/08/21 08:57:23;;;;;;;3.15;1.45;;;29.90;99.90;;;;;;5096154;28;20538;-81
2022/08/21 08:59:53;;;;;;;5.18;1.50;;;30.80;99.90;;;;;;5086529;28;20204;-81
2022/08/21 09:02:19;;;;;;;2.75;1.05;;;29.70;99.90;;;;;;5072252;28;20791;-81
2022/08/21 09:04:47;;;;;;;2.97;1.40;;;27.80;99.90;;;;;;5014322;28;20218;-81
2022/08/21 09:07:45;;;;;;;4.55;1.75;;;26.30;99.90;;;;;;5026313;28;20265;-82
2022/08/21 09:10:23;;;;;;;2.20;1.38;;;25.70;99.90;;;;;;5015365;28;20254;-82
2022/08/21 09:13:01;;;;;;;3.60;1.60;;;26.30;99.90;;;;;;5012959;28;20238;-81
2022/08/21 09:15:35;;;;;;;4.65;1.67;;;24.80;99.90;;;;;;5017811;28;20225;-81
2022/08/21 09:18:30;;;;;;;6.72;1.60;;;23.90;99.90;;;;;;5015782;28;20256;-82
2022/08/21 09:21:02;;;;;;;3.25;1.40;;;24.10;99.90;;;;;;5016939;28;20304;-81
2022/08/21 09:23:34;;;;;;;2.15;1.52;;;24.90;99.90;;;;;;5024152;28;20187;-83
2022/08/21 09:26:38;;;;;;;4.10;1.70;;;27.30;99.90;;;;;;5018533;28;20399;-82
2022/08/21 09:29:06;;;;;;;6.55;1.90;;;29.60;99.90;;;;;;5012136;28;20219;-82
2022/08/21 09:31:37;;;;;;;1.67;1.20;;;31.60;99.90;;;;;;5017860;28;20582;-83
2022/08/21 09:34:09;;;;;;;1.65;1.38;;;30.80;99.90;;;;;;5022035;28;20214;-82
2022/08/21 09:36:42;;;;;;;3.80;1.50;;;28.60;99.90;;;;;;5017419;28;20301;-82
2022/08/21 09:39:10;;;;;;;4.70;1.55;;;29.70;99.90;;;;;;5020733;28;20573;-82
2022/08/21 09:41:37;;;;;;;3.90;1.33;;;28.90;99.90;;;;;;5013295;28;20214;-82
2022/08/21 09:44:05;;;;;;;3.63;1.33;;;27.80;99.90;;;;;;5014745;28;20206;-83
2022/08/21 09:46:32;;;;;;;1.98;1.30;;;26.80;99.90;;;;;;5021767;28;20218;-83
2022/08/21 09:49:03;;;;;;;4.88;1.50;;;26.10;99.90;;;;;;5021786;28;20210;-82
2022/08/21 09:51:35;;;;;;;4.50;1.48;;;25.90;99.90;;;;;;5019499;28;20234;-81
2022/08/21 09:54:06;;;;;;;3.22;1.33;;;26.90;99.90;;;;;;5032889;28;20321;-81
2022/08/21 09:59:32;;;;;;;5.20;1.25;;;27.50;99.90;;;;;;4996412;28;20222;-82
2022/08/21 10:02:01;;;;;;;1.70;1.40;;;26.40;99.90;;;;;;5015152;28;20249;-81
2022/08/21 10:04:34;;;;;;;4.28;1.50;;;25.50;99.90;;;;;;5017151;28;20218;-81
2022/08/21 10:07:13;;;;;;;7.00;1.88;;;24.80;99.90;;;;;;5017387;28;20292;-80
2022/08/21 10:09:42;;;;;;;4.13;1.60;;;24.90;99.90;;;;;;5015810;28;20210;-80
2022/08/21 10:12:33;;;;;;;2.60;1.55;;;25.10;99.90;;;;;;5016166;28;20604;-82
2022/08/21 10:15:20;;;;;;;5.03;1.20;;;25.20;99.90;;;;;;5024911;28;20214;-81
2022/08/21 10:17:51;;;;;;;3.25;1.35;;;26.20;99.90;;;;;;5032601;28;20207;-81
2022/08/21 10:20:23;;;;;;;1.55;1.00;;;27.30;99.90;;;;;;5017183;28;20213;-80
2022/08/21 10:23:21;;;;;;;2.15;1.00;;;27.20;99.90;;;;;;5020453;28;20519;-81
2022/08/21 10:25:51;;;;;;;2.58;1.00;;;27.40;99.90;;;;;;5018960;28;20552;-81
2022/08/21 10:28:47;;;;;;;2.80;0.90;;;27.30;99.90;;;;;;5016502;28;20238;-81
2022/08/21 10:31:22;;;;;;;3.42;1.48;;;27.10;99.90;;;;;;5018816;28;20218;-81
2022/08/21 10:34:01;;;;;;;4.75;1.10;;;27.10;99.90;;;;;;5015907;28;20272;-82
2022/08/21 10:36:37;;;;;;;2.55;0.85;;;26.50;99.90;;;;;;5017257;28;20211;-81
2022/08/21 10:39:32;;;;;;;0.73;0.73;;;26.00;99.90;;;;;;5015627;28;20226;-81
2022/08/21 10:42:04;;;;;;;2.00;0.82;;;26.50;99.90;;;;;;5018683;28;20589;-80
2022/08/21 10:44:53;;;;;;;2.72;1.25;;;27.00;99.90;;;;;;5014601;28;20726;-80
2022/08/21 10:47:34;;;;;;;1.42;0.98;;;26.80;99.90;;;;;;5023630;28;20180;-81
2022/08/21 10:50:21;;;;;;;5.28;1.23;;;26.90;99.90;;;;;;5016010;28;20622;-81
2022/08/21 10:52:46;;;;;;;3.17;1.27;;;26.90;99.90;;;;;;5015939;28;20245;-80
2022/08/21 10:55:20;;;;;;;2.60;1.40;;;27.30;99.90;;;;;;5017318;28;20689;-81
2022/08/21 10:57:58;;;;;;;3.60;1.13;;;27.90;99.90;;;;;;5026345;28;20301;-80
2022/08/21 11:00:32;;;;;;;6.47;1.48;;;27.40;99.90;;;;;;5033339;28;20222;-81
2022/08/21 11:03:04;;;;;;;3.38;0.93;;;28.10;99.90;;;;;;5020189;28;20266;-81
2022/08/21 11:05:42;;;;;;;1.00;0.90;;;27.30;99.90;;;;;;5020665;28;20184;-81
2022/08/21 11:08:15;;;;;;;2.88;1.08;;;26.90;99.90;;;;;;5018817;28;20230;-81
2022/08/21 11:10:45;;;;;;;3.85;1.48;;;26.70;99.90;;;;;;5019432;28;20211;-82
2022/08/21 11:13:25;;;;;;;4.70;1.10;;;27.20;99.90;;;;;;5021507;28;20251;-82
2022/08/21 11:16:07;;;;;;;3.88;0.90;;;27.60;99.90;;;;;;5020138;28;20226;-81
2022/08/21 11:18:37;;;;;;;3.42;0.95;;;27.10;99.90;;;;;;5018963;28;20223;-81
2022/08/21 11:21:37;;;;;;;2.67;1.30;;;26.80;99.90;;;;;;5018213;28;20677;-81
2022/08/21 11:24:50;;;;;;;3.90;1.70;;;26.40;99.90;;;;;;5019785;28;20226;-81
2022/08/21 11:27:53;;;;;;;3.83;1.23;;;26.30;99.90;;;;;;5017482;28;20701;-81
2022/08/21 11:30:19;;;;;;;3.88;1.10;;;26.60;99.90;;;;;;5018789;28;20634;-81
2022/08/21 11:32:56;;;;;;;1.88;1.13;;;26.50;99.90;;;;;;5004456;28;20227;-82
2022/08/21 11:35:46;;;;;;;2.47;1.45;;;26.50;99.90;;;;;;5018240;28;20200;-81
2022/08/21 11:38:43;;;;;;;5.03;1.20;;;26.80;99.90;;;;;;5023524;28;20183;-81
2022/08/21 11:41:27;;;;;;;1.70;1.20;;;26.40;99.90;;;;;;5017145;28;20697;-81
2022/08/21 11:44:16;;;;;;;2.78;1.40;;;26.50;99.90;;;;;;5019490;28;20288;-80
2022/08/21 11:47:03;;;;;;;2.10;0.93;;;26.40;99.90;;;;;;5019163;28;20523;-80
2022/08/21 11:49:57;;;;;;;1.42;1.00;;;25.40;99.90;;;;;;5014461;28;20218;-80
2022/08/21 11:52:37;;;;;;;2.72;1.05;;;26.00;99.90;;;;;;5014545;28;20727;-81
2022/08/21 11:55:27;;;;;;;1.17;0.80;;;26.10;99.90;;;;;;5019936;28;20218;-81
2022/08/21 11:58:11;;;;;;;3.05;1.10;;;25.70;99.90;;;;;;5014065;28;20223;-81
2022/08/21 12:00:54;;;;;;;2.65;1.30;;;25.60;99.90;;;;;;5021135;28;20301;-80
2022/08/21 12:03:29;;;;;;;1.33;0.90;;;25.20;99.90;;;;;;5080958;28;20232;-81
2022/08/21 12:06:08;;;;;;;2.55;1.23;;;25.20;99.90;;;;;;5099625;28;20222;-80
2022/08/21 12:08:37;;;;;;;4.57;1.20;;;24.90;99.90;;;;;;5100868;28;20263;-82
2022/08/21 12:11:17;;;;;;;4.80;1.40;;;25.30;99.90;;;;;;5087464;28;20187;-80
2022/08/21 12:14:00;;;;;;;4.57;1.45;;;25.80;99.90;;;;;;5103046;28;20223;-80
2022/08/21 12:16:41;;;;;;;5.43;1.60;;;25.60;99.90;;;;;;5100451;28;20204;-81
2022/08/21 12:19:09;;;;;;;2.03;1.60;;;25.30;99.90;;;;;;5084807;28;20216;-81
2022/08/21 12:21:50;;;;;;;2.35;1.05;;;24.80;99.90;;;;;;5084290;28;20228;-81
2022/08/21 12:24:30;;;;;;;2.95;1.10;;;24.80;99.90;;;;;;5100967;28;20216;-82
2022/08/21 12:27:13;;;;;;;4.05;1.23;;;24.20;99.90;;;;;;5102211;28;20228;-81
2022/08/21 12:29:46;;;;;;;1.30;1.00;;;24.00;99.90;;;;;;5100559;28;20236;-81
2022/08/21 12:32:15;;;;;;;4.47;0.85;;;24.30;99.90;;;;;;5099293;28;20199;-82
2022/08/21 12:34:48;;;;;;;1.48;1.13;;;24.00;99.90;;;;;;5104001;28;20242;-81
2022/08/21 12:37:47;;;;;;;2.90;0.90;;;24.30;99.90;;;;;;5092722;28;20219;-81
2022/08/21 12:40:27;;;;;;;2.10;1.17;;;24.40;99.90;;;;;;5082136;28;20266;-82
2022/08/21 12:42:55;;;;;;;4.32;1.00;;;24.30;99.90;;;;;;5104690;28;20230;-82
2022/08/21 12:45:34;;;;;;;3.83;1.73;;;24.40;99.90;;;;;;5081343;28;20235;-83
2022/08/21 12:48:19;;;;;;;3.17;1.48;;;24.40;99.90;;;;;;5090716;28;20680;-82
2022/08/21 12:50:57;;;;;;;6.45;1.00;;;24.20;99.90;;;;;;5104198;28;20269;-83
2022/08/21 12:53:33;;;;;;;2.75;0.85;;;24.20;99.90;;;;;;5100528;28;20295;-83
2022/08/21 12:56:08;;;;;;;2.17;0.93;;;24.20;99.90;;;;;;5103329;28;20199;-82
2022/08/21 12:58:34;;;;;;;3.25;1.35;;;24.40;99.90;;;;;;5104469;28;20223;-82
2022/08/21 13:01:07;;;;;;;3.17;0.90;;;24.60;99.90;;;;;;5101089;28;20273;-83
2022/08/21 13:03:36;;;;;;;1.10;1.00;;;24.50;99.90;;;;;;5100177;28;20224;-83
2022/08/21 13:06:06;;;;;;;2.33;1.13;;;24.40;99.90;;;;;;5083799;28;20216;-82